Belmar, NJ

7:02 PM EST on February 23, 2017 (GMT -0500)
Allaire

Weather History for KBLM - October, 2012

Change the Weather History Date:

Monday, October 15, 2012

  Actual Average Record
Temperature  
Mean Temperature 68 °F -  
Max Temperature 75 °F 61 °F 75 °F (2000)
Min Temperature 60 °F 46 °F 33 °F (1999)
Cooling Degree Days 2    
Growing Degree Days 18 (Base 50)    
Moisture  
Dew Point 59 °F    
Average Humidity 77    
Maximum Humidity 94    
Minimum Humidity 57    
Precipitation  
Precipitation 0.02 in - - ()
Sea Level Pressure  
Sea Level Pressure 29.77 in    
Wind  
Wind Speed 10 mph (SW)    
Max Wind Speed 17 mph    
Max Gust Speed 26 mph    
Visibility 10 miles    
Events      
Averages and records for this station are not official NWS values.
T = Trace of Precipitation, MM = Missing Value Source: NWS Daily Summary

Daily Weather History Graph

Daily Weather History Graph

Search for Another Location

Airport or City:

Trip Planner

Search our weather history database for the weather conditions in past years. The results will help you decide how hot, cold, wet, or windy it might be!

Date:

Astronomy

Oct. 15, 2012 Rise Set
Actual Time 7:07 AM EDT 6:16 PM EDT
Civil Twilight 6:40 AM EDT 6:43 PM EDT
Nautical Twilight 6:08 AM EDT 7:14 PM EDT
Astronomical Twilight 5:37 AM EDT 7:46 PM EDT
Moon 7:14 AM EDT (10/15) 6:13 PM EDT (10/15)
Length of Visible Light 12h 03m
Length of Day
11h 08m
New Moon, 0% of the Moon is Illuminated
Oct 15
New Moon
Oct 21
First Quarter
Oct 29
Full
Nov 6
Last Quarter
Nov 13
New

Hourly Weather History & Observations

Time (EDT) Temp. Dew Point Humidity Pressure Visibility Wind Dir Wind Speed Gust Speed Precip Events Conditions
12:15 AM 62.6 °F 57.2 °F 82% 29.96 in 10.0 mi South 11.5 mph 17.3 mph N/A   Clear
12:35 AM 62.6 °F 57.2 °F 82% 29.96 in 10.0 mi South 11.5 mph - N/A   Clear
1:15 AM 64.4 °F 57.2 °F 77% 29.94 in 10.0 mi South 10.4 mph 17.3 mph N/A   Clear
1:35 AM 64.4 °F 57.2 °F 77% 29.94 in 10.0 mi SSW 10.4 mph 16.1 mph N/A   Clear
1:55 AM 64.4 °F 57.2 °F 77% 29.93 in 10.0 mi SSW 9.2 mph - N/A   Clear
2:15 AM 64.4 °F 57.2 °F 77% 29.93 in 10.0 mi SSW 9.2 mph - N/A   Partly Cloudy
2:35 AM 64.4 °F 57.2 °F 77% 29.91 in 10.0 mi South 8.1 mph - N/A   Clear
2:55 AM 64.4 °F 57.2 °F 77% 29.90 in 10.0 mi SSW 8.1 mph - N/A   Clear
3:15 AM 64.4 °F 57.2 °F 77% 29.89 in 10.0 mi SSW 9.2 mph - N/A   Mostly Cloudy
3:35 AM 64.4 °F 57.2 °F 77% 29.88 in 10.0 mi SSW 10.4 mph - N/A   Overcast
3:55 AM 64.4 °F 57.2 °F 77% 29.87 in 10.0 mi SSW 9.2 mph 17.3 mph N/A   Mostly Cloudy
4:15 AM 64.4 °F 57.2 °F 77% 29.86 in 10.0 mi SSW 11.5 mph 18.4 mph N/A   Mostly Cloudy
4:35 AM 64.4 °F 57.2 °F 77% 29.85 in 10.0 mi SSW 9.2 mph - N/A   Mostly Cloudy
4:55 AM 64.4 °F 57.2 °F 77% 29.85 in 10.0 mi SSW 10.4 mph - N/A   Mostly Cloudy
5:15 AM 66.2 °F 57.2 °F 73% 29.84 in 10.0 mi South 10.4 mph 18.4 mph N/A   Scattered Clouds
5:55 AM 64.4 °F 57.2 °F 77% 29.84 in 10.0 mi SSW 10.4 mph 17.3 mph N/A   Mostly Cloudy
6:15 AM 64.4 °F 57.2 °F 77% 29.82 in 10.0 mi SSW 8.1 mph - N/A   Mostly Cloudy
6:35 AM 64.4 °F 57.2 °F 77% 29.82 in 10.0 mi South 10.4 mph - N/A   Mostly Cloudy
6:55 AM 64.4 °F 57.2 °F 77% 29.82 in 10.0 mi South 11.5 mph 17.3 mph N/A   Mostly Cloudy
7:15 AM 64.4 °F 57.2 °F 77% 29.81 in 10.0 mi SSW 9.2 mph - N/A   Scattered Clouds
7:35 AM 64.4 °F 57.2 °F 77% 29.81 in 10.0 mi South 11.5 mph 17.3 mph N/A   Clear
7:55 AM 64.4 °F 57.2 °F 77% 29.81 in 10.0 mi SSW 11.5 mph 19.6 mph N/A   Clear
8:15 AM 66.2 °F 57.2 °F 73% 29.81 in 10.0 mi SSW 11.5 mph 17.3 mph N/A   Clear
8:35 AM 66.2 °F 57.2 °F 73% 29.82 in 10.0 mi SSW 9.2 mph 20.7 mph N/A   Partly Cloudy
8:55 AM 66.2 °F 59.0 °F 78% 29.82 in 10.0 mi SSW 12.7 mph 20.7 mph N/A   Clear
9:15 AM 68.0 °F 59.0 °F 73% 29.82 in 10.0 mi SSW 12.7 mph 19.6 mph N/A   Clear
9:35 AM 69.8 °F 57.2 °F 64% 29.82 in 10.0 mi SW 11.5 mph 26.5 mph N/A   Clear
9:55 AM 69.8 °F 57.2 °F 64% 29.81 in 10.0 mi SSW 10.4 mph 19.6 mph N/A   Clear
10:15 AM 71.6 °F 59.0 °F 64% 29.80 in 10.0 mi SW 17.3 mph 25.3 mph N/A   Scattered Clouds
10:35 AM 73.4 °F 59.0 °F 61% 29.79 in 10.0 mi SW 16.1 mph 24.2 mph N/A   Partly Cloudy
10:55 AM 73.4 °F 57.2 °F 57% 29.79 in 10.0 mi SW 16.1 mph 23.0 mph N/A   Mostly Cloudy
11:55 AM 73.4 °F 57.2 °F 57% 29.76 in 10.0 mi SW 10.4 mph 25.3 mph N/A   Mostly Cloudy
12:15 PM 73.4 °F 57.2 °F 57% 29.76 in 10.0 mi SW 16.1 mph 26.5 mph N/A   Mostly Cloudy
12:35 PM 75.2 °F 60.8 °F 61% 29.75 in 10.0 mi WSW 13.8 mph 23.0 mph N/A   Overcast
12:55 PM 73.4 °F 60.8 °F 65% 29.75 in 10.0 mi SW 15.0 mph 23.0 mph N/A   Mostly Cloudy
1:15 PM 73.4 °F 60.8 °F 65% 29.74 in 10.0 mi West 17.3 mph 26.5 mph N/A   Overcast
1:35 PM 71.6 °F 60.8 °F 69% 29.73 in 10.0 mi WSW 10.4 mph - N/A   Overcast
1:55 PM 71.6 °F 60.8 °F 69% 29.73 in 10.0 mi SW 12.7 mph 20.7 mph N/A   Overcast
2:15 PM 71.6 °F 60.8 °F 69% 29.71 in 10.0 mi WSW 13.8 mph 18.4 mph N/A   Overcast
2:35 PM 71.6 °F 60.8 °F 69% 29.70 in 10.0 mi SW 9.2 mph - N/A   Overcast
2:55 PM 69.8 °F 60.8 °F 73% 29.70 in 10.0 mi WSW 11.5 mph 16.1 mph N/A   Overcast
3:15 PM 71.6 °F 60.8 °F 69% 29.70 in 10.0 mi WSW 9.2 mph - N/A   Overcast
3:35 PM 71.6 °F 60.8 °F 69% 29.69 in 10.0 mi WSW 8.1 mph - N/A   Mostly Cloudy
3:55 PM 71.6 °F 60.8 °F 69% 29.70 in 10.0 mi WSW 12.7 mph 23.0 mph N/A   Overcast
4:15 PM 69.8 °F 60.8 °F 73% 29.70 in 10.0 mi WSW 12.7 mph - N/A   Overcast
4:35 PM 69.8 °F 60.8 °F 73% 29.69 in 10.0 mi WSW 8.1 mph - N/A   Overcast
4:55 PM 69.8 °F 60.8 °F 73% 29.68 in 10.0 mi SW 4.6 mph - N/A   Overcast
5:15 PM 68.0 °F 60.8 °F 78% 29.68 in 10.0 mi SSW 3.5 mph - N/A   Overcast
5:35 PM 66.2 °F 62.6 °F 88% 29.66 in 10.0 mi SSE 3.5 mph - 0.01 in   Overcast
5:55 PM 64.4 °F 62.6 °F 94% 29.66 in 10.0 mi South 5.8 mph - 0.01 in   Mostly Cloudy
6:15 PM 64.4 °F 62.6 °F 94% 29.67 in 10.0 mi SW 5.8 mph - N/A   Partly Cloudy
6:35 PM 64.4 °F 62.6 °F 94% 29.68 in 10.0 mi SW 8.1 mph - N/A   Clear
6:55 PM 64.4 °F 62.6 °F 94% 29.67 in 10.0 mi SW 8.1 mph - N/A   Mostly Cloudy
7:15 PM 64.4 °F 60.8 °F 88% 29.67 in 10.0 mi WSW 15.0 mph 20.7 mph N/A   Overcast
7:35 PM 64.4 °F 60.8 °F 88% 29.67 in 10.0 mi West 9.2 mph - N/A   Mostly Cloudy
7:55 PM 62.6 °F 59.0 °F 88% 29.68 in 10.0 mi West 10.4 mph - N/A   Mostly Cloudy
8:15 PM 62.6 °F 59.0 °F 88% 29.68 in 10.0 mi West 5.8 mph - N/A   Mostly Cloudy
8:35 PM 62.6 °F 59.0 °F 88% 29.68 in 10.0 mi West 5.8 mph - N/A   Overcast
8:55 PM 62.6 °F 59.0 °F 88% 29.69 in 10.0 mi WSW 4.6 mph - N/A   Overcast
9:15 PM 62.6 °F 59.0 °F 88% 29.69 in 10.0 mi WSW 5.8 mph - N/A   Overcast
9:35 PM 62.6 °F 59.0 °F 88% 29.70 in 10.0 mi WSW 5.8 mph - N/A   Overcast
9:55 PM 62.6 °F 59.0 °F 88% 29.70 in 10.0 mi WSW 5.8 mph - N/A   Overcast
10:15 PM 60.8 °F 59.0 °F 94% 29.71 in 10.0 mi WSW 5.8 mph - N/A   Overcast
10:35 PM 60.8 °F 57.2 °F 88% 29.69 in 10.0 mi West 5.8 mph - N/A   Overcast
10:55 PM 60.8 °F 57.2 °F 88% 29.70 in 10.0 mi West 8.1 mph - 0.01 in   Overcast
11:15 PM 60.8 °F 57.2 °F 88% 29.71 in 10.0 mi SW 9.2 mph - N/A   Overcast
11:35 PM 60.8 °F 57.2 °F 88% 29.70 in 10.0 mi WSW 4.6 mph - N/A   Overcast
11:55 PM 60.8 °F 57.2 °F 88% 29.70 in 10.0 mi WSW 4.6 mph - N/A   Overcast